Time;durP1;ratioP1;P1;durP2;ratioP2;P2;SDS_P1;SDS_P2;PMS_P1;PMS_P2;Temp;Humidity;BMP_temperature;BMP_pressure;BME280_temperature;BME280_humidity;BME280_pressure;Samples;Min_cycle;Max_cycle;Signal;HPM_P1;HPM_P2
2021/08/25 00:02:16;;;;;;;2.13;1.92;;;;;;;;;;5077886;28;20492;-45
2021/08/25 00:04:43;;;;;;;1.95;1.85;;;;;;;;;;5095945;28;20181;-45
2021/08/25 00:07:09;;;;;;;2.13;2.03;;;;;;;;;;5095255;28;20235;-45
2021/08/25 00:09:39;;;;;;;3.67;2.00;;;;;;;;;;5095893;28;20201;-45
2021/08/25 00:12:06;;;;;;;2.13;1.90;;;;;;;;;;5096078;28;20174;-45
2021/08/25 00:14:33;;;;;;;2.97;2.05;;;;;;;;;;5094591;28;20181;-45
2021/08/25 00:16:59;;;;;;;2.22;2.03;;;;;;;;;;5095322;28;20209;-45
2021/08/25 00:19:25;;;;;;;2.00;1.90;;;;;;;;;;5095328;28;20224;-45
2021/08/25 00:21:51;;;;;;;1.98;1.88;;;;;;;;;;5085536;28;20221;-45
2021/08/25 00:24:17;;;;;;;1.92;1.75;;;;;;;;;;5095093;28;20257;-45
2021/08/25 00:26:46;;;;;;;2.08;1.88;;;;;;;;;;5095165;28;20173;-45
2021/08/25 00:29:13;;;;;;;2.00;1.90;;;;;;;;;;5092441;28;21072;-45
2021/08/25 00:31:39;;;;;;;3.00;1.65;;;;;;;;;;5075509;28;20162;-45
2021/08/25 00:34:05;;;;;;;2.50;1.85;;;;;;;;;;5091636;28;20581;-45
2021/08/25 00:36:31;;;;;;;2.95;2.00;;;;;;;;;;5095672;28;20178;-45
2021/08/25 00:38:57;;;;;;;2.30;2.17;;;;;;;;;;5102630;28;20556;-45
2021/08/25 00:41:23;;;;;;;1.80;1.70;;;;;;;;;;5109457;28;20284;-45
2021/08/25 00:43:49;;;;;;;1.90;1.80;;;;;;;;;;5094912;28;20181;-45
2021/08/25 00:46:15;;;;;;;1.60;1.50;;;;;;;;;;5095408;28;20165;-45
2021/08/25 00:48:41;;;;;;;1.85;1.75;;;;;;;;;;5094528;28;20209;-45
2021/08/25 00:51:07;;;;;;;1.70;1.60;;;;;;;;;;5095036;28;20220;-45
2021/08/25 00:53:33;;;;;;;1.90;1.80;;;;;;;;;;5091091;28;20201;-45
2021/08/25 00:55:59;;;;;;;2.65;1.80;;;;;;;;;;5095241;28;20184;-45
2021/08/25 00:58:26;;;;;;;2.95;1.40;;;;;;;;;;5090352;28;20182;-45
2021/08/25 01:01:02;;;;;;;2.08;1.98;;;;;;;;;;5083491;28;20217;-45
2021/08/25 01:03:30;;;;;;;1.90;1.67;;;;;;;;;;5092925;28;20264;-45
2021/08/25 01:05:57;;;;;;;1.88;1.77;;;;;;;;;;5094930;28;20547;-45
2021/08/25 01:08:24;;;;;;;2.17;1.83;;;;;;;;;;5094149;28;20188;-45
2021/08/25 01:11:15;;;;;;;1.80;1.70;;;;;;;;;;5094796;28;20555;-44
2021/08/25 01:13:41;;;;;;;1.73;1.63;;;;;;;;;;5094596;28;20204;-44
2021/08/25 01:16:07;;;;;;;1.98;1.80;;;;;;;;;;5093661;28;20185;-44
2021/08/25 01:18:34;;;;;;;1.88;1.70;;;;;;;;;;5094351;28;20193;-44
2021/08/25 01:21:00;;;;;;;1.70;1.60;;;;;;;;;;5094789;28;20564;-45
2021/08/25 01:23:26;;;;;;;1.42;1.40;;;;;;;;;;5094431;28;20663;-45
2021/08/25 01:25:56;;;;;;;1.63;1.52;;;;;;;;;;5094664;28;20177;-45
2021/08/25 01:28:23;;;;;;;1.60;1.50;;;;;;;;;;5094092;28;20568;-45
2021/08/25 01:30:50;;;;;;;2.53;1.60;;;;;;;;;;5086651;28;20182;-45
2021/08/25 01:33:19;;;;;;;1.73;1.63;;;;;;;;;;5078847;28;20431;-45
2021/08/25 01:35:45;;;;;;;1.55;1.45;;;;;;;;;;5094089;28;20506;-45
2021/08/25 01:38:20;;;;;;;1.50;1.40;;;;;;;;;;5095830;28;20185;-45
2021/08/25 01:40:46;;;;;;;1.98;1.70;;;;;;;;;;5107034;28;20204;-45
2021/08/25 01:43:11;;;;;;;1.60;1.50;;;;;;;;;;5092215;28;20185;-45
2021/08/25 01:45:37;;;;;;;1.50;1.40;;;;;;;;;;5088629;28;20170;-45
2021/08/25 01:48:03;;;;;;;1.60;1.50;;;;;;;;;;5093712;28;20169;-45
2021/08/25 01:50:29;;;;;;;1.45;1.35;;;;;;;;;;5081404;28;20587;-45
2021/08/25 01:52:55;;;;;;;1.63;1.52;;;;;;;;;;5094354;28;20174;-45
2021/08/25 01:55:21;;;;;;;1.80;1.70;;;;;;;;;;5093744;28;20178;-44
2021/08/25 01:57:47;;;;;;;1.60;1.50;;;;;;;;;;5094137;28;20565;-44
2021/08/25 02:00:14;;;;;;;1.98;1.88;;;;;;;;;;5074520;28;20185;-44
2021/08/25 02:02:40;;;;;;;1.67;1.58;;;;;;;;;;5085380;28;20256;-45
2021/08/25 02:05:06;;;;;;;1.40;1.30;;;;;;;;;;5093648;28;20600;-45
2021/08/25 02:07:32;;;;;;;2.03;1.40;;;;;;;;;;5093341;28;20247;-45
2021/08/25 02:09:58;;;;;;;1.50;1.40;;;;;;;;;;5092508;28;20186;-45
2021/08/25 02:12:24;;;;;;;1.30;1.20;;;;;;;;;;5082518;28;20189;-44
2021/08/25 02:14:50;;;;;;;1.48;1.38;;;;;;;;;;5083932;28;20484;-44
2021/08/25 02:17:16;;;;;;;1.40;1.30;;;;;;;;;;5093939;28;20186;-44
2021/08/25 02:19:42;;;;;;;1.40;1.30;;;;;;;;;;5093725;28;20268;-44
2021/08/25 02:22:08;;;;;;;1.50;1.40;;;;;;;;;;5093685;28;20201;-44
2021/08/25 02:24:34;;;;;;;1.55;1.45;;;;;;;;;;5093616;28;20277;-44
2021/08/25 02:27:00;;;;;;;1.50;1.40;;;;;;;;;;5093114;28;20618;-45
2021/08/25 02:29:26;;;;;;;1.40;1.30;;;;;;;;;;5094105;28;20174;-45
2021/08/25 02:31:52;;;;;;;1.50;1.40;;;;;;;;;;5091835;28;20170;-45
2021/08/25 02:34:18;;;;;;;1.20;1.20;;;;;;;;;;5075133;28;20228;-45
2021/08/25 02:36:44;;;;;;;1.25;1.23;;;;;;;;;;5093614;28;20196;-45
2021/08/25 02:39:10;;;;;;;1.30;1.20;;;;;;;;;;5102756;28;20213;-45
2021/08/25 02:41:36;;;;;;;1.27;1.20;;;;;;;;;;5107195;28;20202;-45
2021/08/25 02:44:02;;;;;;;1.60;1.50;;;;;;;;;;5093913;28;20185;-45
2021/08/25 02:46:28;;;;;;;1.50;1.35;;;;;;;;;;5093481;28;20568;-45
2021/08/25 02:48:54;;;;;;;1.38;1.27;;;;;;;;;;5094617;28;20213;-44
2021/08/25 02:51:20;;;;;;;1.50;1.40;;;;;;;;;;5097360;28;20186;-44
2021/08/25 02:53:46;;;;;;;1.40;1.30;;;;;;;;;;5092624;28;20229;-44
2021/08/25 02:56:12;;;;;;;1.67;1.33;;;;;;;;;;5096988;28;20181;-44
2021/08/25 02:58:38;;;;;;;1.35;1.33;;;;;;;;;;5096956;28;20174;-45
2021/08/25 03:01:04;;;;;;;1.40;1.30;;;;;;;;;;5095605;28;20595;-45
2021/08/25 03:03:30;;;;;;;1.55;1.45;;;;;;;;;;5097355;28;20184;-45
2021/08/25 03:05:56;;;;;;;1.40;1.30;;;;;;;;;;5096447;28;20173;-45
2021/08/25 03:08:22;;;;;;;1.52;1.42;;;;;;;;;;5096404;28;20173;-45
2021/08/25 03:10:48;;;;;;;1.25;1.15;;;;;;;;;;5097270;28;20556;-45
2021/08/25 03:13:14;;;;;;;1.60;1.50;;;;;;;;;;5097585;28;20166;-45
2021/08/25 03:15:40;;;;;;;1.30;1.20;;;;;;;;;;5087996;28;20178;-45
2021/08/25 03:18:06;;;;;;;1.30;1.20;;;;;;;;;;5084305;28;20593;-45
2021/08/25 03:20:32;;;;;;;1.52;1.42;;;;;;;;;;5096617;28;20170;-45
2021/08/25 03:22:58;;;;;;;1.27;1.20;;;;;;;;;;5096425;28;20196;-45
2021/08/25 03:25:24;;;;;;;1.40;1.30;;;;;;;;;;5097077;28;20585;-45
2021/08/25 03:27:50;;;;;;;1.33;1.27;;;;;;;;;;5096373;28;20174;-45
2021/08/25 03:30:16;;;;;;;1.63;1.52;;;;;;;;;;5096232;28;20205;-45
2021/08/25 03:32:42;;;;;;;1.15;1.15;;;;;;;;;;5096787;28;20219;-45
2021/08/25 03:35:08;;;;;;;1.50;1.40;;;;;;;;;;5096257;28;20252;-45
2021/08/25 03:37:34;;;;;;;1.50;1.40;;;;;;;;;;5094385;28;20189;-45
2021/08/25 03:40:00;;;;;;;1.30;1.20;;;;;;;;;;5105224;28;20184;-44
2021/08/25 03:42:26;;;;;;;1.60;1.50;;;;;;;;;;5096230;28;20215;-45
2021/08/25 03:44:52;;;;;;;1.40;1.30;;;;;;;;;;5096778;28;20174;-45
2021/08/25 03:47:18;;;;;;;1.20;1.20;;;;;;;;;;5096012;28;20169;-45
2021/08/25 03:49:44;;;;;;;1.42;1.33;;;;;;;;;;5095946;28;20192;-45
2021/08/25 03:52:10;;;;;;;1.23;1.08;;;;;;;;;;5095817;28;20586;-45
2021/08/25 03:54:36;;;;;;;1.50;1.40;;;;;;;;;;5094965;28;20552;-45
2021/08/25 03:57:02;;;;;;;3.55;1.50;;;;;;;;;;5088206;28;20171;-45
2021/08/25 03:59:28;;;;;;;1.30;1.20;;;;;;;;;;5076136;28;20602;-45
2021/08/25 04:01:54;;;;;;;1.25;1.20;;;;;;;;;;5091358;28;20198;-44
2021/08/25 04:04:20;;;;;;;1.42;1.38;;;;;;;;;;5095703;28;20421;-44
2021/08/25 04:06:46;;;;;;;2.97;1.45;;;;;;;;;;5096065;28;20259;-45
2021/08/25 04:09:12;;;;;;;10.35;2.85;;;;;;;;;;5095375;28;20236;-45
2021/08/25 04:11:38;;;;;;;12.25;3.38;;;;;;;;;;5095574;28;20185;-45
2021/08/25 04:14:05;;;;;;;11.75;3.05;;;;;;;;;;5086745;28;20415;-45
2021/08/25 04:16:31;;;;;;;9.43;2.78;;;;;;;;;;5087785;28;20181;-45
2021/08/25 04:18:57;;;;;;;10.00;2.70;;;;;;;;;;5085123;28;20178;-45
2021/08/25 04:21:24;;;;;;;8.60;2.70;;;;;;;;;;5079451;28;20198;-45
2021/08/25 04:23:50;;;;;;;10.68;3.25;;;;;;;;;;5091499;28;20548;-45
2021/08/25 04:26:16;;;;;;;4.75;2.40;;;;;;;;;;5095740;28;20174;-45
2021/08/25 04:28:42;;;;;;;12.15;2.45;;;;;;;;;;5095547;28;20166;-45
2021/08/25 04:31:08;;;;;;;9.60;2.75;;;;;;;;;;5095930;28;20181;-45
2021/08/25 04:33:34;;;;;;;11.68;2.95;;;;;;;;;;5095231;28;20182;-45
2021/08/25 04:36:01;;;;;;;9.35;2.90;;;;;;;;;;5094060;28;20235;-45
2021/08/25 04:38:27;;;;;;;9.43;2.58;;;;;;;;;;5098623;28;20228;-45
2021/08/25 04:40:56;;;;;;;7.88;2.83;;;;;;;;;;5107486;28;22074;-45
2021/08/25 04:43:22;;;;;;;6.30;2.20;;;;;;;;;;5092062;28;20173;-45
2021/08/25 04:45:48;;;;;;;5.95;2.45;;;;;;;;;;5089946;28;20182;-45
2021/08/25 04:48:14;;;;;;;7.85;2.65;;;;;;;;;;5093843;28;20165;-45
2021/08/25 04:50:40;;;;;;;4.90;2.25;;;;;;;;;;5095638;28;20193;-45
2021/08/25 04:53:07;;;;;;;5.28;2.20;;;;;;;;;;5095130;28;20197;-45
2021/08/25 04:55:36;;;;;;;5.28;2.35;;;;;;;;;;5095411;28;20184;-45
2021/08/25 04:58:03;;;;;;;3.65;2.00;;;;;;;;;;5094505;28;20189;-45
2021/08/25 05:00:29;;;;;;;3.35;2.33;;;;;;;;;;5095227;28;20253;-45
2021/08/25 05:02:55;;;;;;;6.05;2.35;;;;;;;;;;5084391;28;20233;-45
2021/08/25 05:05:21;;;;;;;5.70;2.65;;;;;;;;;;5074921;28;20197;-45
2021/08/25 05:07:47;;;;;;;4.38;2.05;;;;;;;;;;5090782;28;20197;-45
2021/08/25 05:10:13;;;;;;;4.47;2.13;;;;;;;;;;5093776;28;20437;-45
2021/08/25 05:12:39;;;;;;;4.55;2.22;;;;;;;;;;5077146;28;20430;-45
2021/08/25 05:15:06;;;;;;;5.80;2.30;;;;;;;;;;5094953;28;20185;-45
2021/08/25 05:17:32;;;;;;;4.35;2.40;;;;;;;;;;5093476;28;20184;-45
2021/08/25 05:20:01;;;;;;;5.13;2.53;;;;;;;;;;5095109;28;20169;-45
2021/08/25 05:22:27;;;;;;;4.13;2.10;;;;;;;;;;5094423;28;20198;-45
2021/08/25 05:24:53;;;;;;;4.53;2.10;;;;;;;;;;5090389;28;20179;-45
2021/08/25 05:27:19;;;;;;;3.08;1.95;;;;;;;;;;5084905;28;20612;-45
2021/08/25 05:29:45;;;;;;;5.35;2.35;;;;;;;;;;5092186;28;20192;-45
2021/08/25 05:32:11;;;;;;;6.03;2.38;;;;;;;;;;5094075;28;20264;-45
2021/08/25 05:34:37;;;;;;;3.13;1.80;;;;;;;;;;5094922;28;20169;-45
2021/08/25 05:37:03;;;;;;;2.42;1.80;;;;;;;;;;5093901;28;20704;-45
2021/08/25 05:39:29;;;;;;;4.00;2.03;;;;;;;;;;5105271;28;20506;-45
2021/08/25 05:41:55;;;;;;;4.40;1.75;;;;;;;;;;5095657;28;20471;-45
2021/08/25 05:44:21;;;;;;;4.95;2.13;;;;;;;;;;5093742;28;20204;-45
2021/08/25 05:46:47;;;;;;;3.60;1.90;;;;;;;;;;5094435;28;20549;-45
2021/08/25 05:49:13;;;;;;;3.17;2.05;;;;;;;;;;5094009;28;20184;-45
2021/08/25 05:51:39;;;;;;;3.58;1.85;;;;;;;;;;5094090;28;20192;-45
2021/08/25 05:54:05;;;;;;;4.05;2.47;;;;;;;;;;5093961;28;20567;-45
2021/08/25 05:56:31;;;;;;;5.85;2.00;;;;;;;;;;5094574;28;20170;-45
2021/08/25 05:58:57;;;;;;;3.30;1.92;;;;;;;;;;5092859;28;20557;-45
2021/08/25 06:01:25;;;;;;;3.42;2.15;;;;;;;;;;5094162;28;20216;-45
2021/08/25 06:03:51;;;;;;;2.42;1.60;;;;;;;;;;5094067;28;20481;-45
2021/08/25 06:06:17;;;;;;;2.33;1.90;;;;;;;;;;5094151;28;20201;-45
2021/08/25 06:08:43;;;;;;;2.40;1.77;;;;;;;;;;5093336;28;20215;-45
2021/08/25 06:11:09;;;;;;;2.78;1.85;;;;;;;;;;5094318;28;20541;-45
2021/08/25 06:13:35;;;;;;;4.75;1.70;;;;;;;;;;5086382;28;20177;-45
2021/08/25 06:16:01;;;;;;;2.70;2.22;;;;;;;;;;5094503;28;20201;-45
2021/08/25 06:18:27;;;;;;;2.75;1.70;;;;;;;;;;5093673;28;20561;-45
2021/08/25 06:20:53;;;;;;;3.63;2.05;;;;;;;;;;5094049;28;20190;-45
2021/08/25 06:23:19;;;;;;;2.83;1.90;;;;;;;;;;5094677;28;20166;-45
2021/08/25 06:25:45;;;;;;;2.38;1.98;;;;;;;;;;5097412;28;20192;-45
2021/08/25 06:28:11;;;;;;;2.92;1.70;;;;;;;;;;5077132;28;20181;-45
2021/08/25 06:30:37;;;;;;;3.97;1.70;;;;;;;;;;5077889;28;20170;-45
2021/08/25 06:33:03;;;;;;;2.03;1.73;;;;;;;;;;5077885;28;20175;-45
2021/08/25 06:35:29;;;;;;;2.65;1.77;;;;;;;;;;5084484;28;20178;-45
2021/08/25 06:37:55;;;;;;;3.10;2.10;;;;;;;;;;5093044;28;20451;-45
2021/08/25 06:40:21;;;;;;;2.85;1.70;;;;;;;;;;5114417;28;20178;-45
2021/08/25 06:42:47;;;;;;;3.05;1.80;;;;;;;;;;5097588;28;20208;-45
2021/08/25 06:45:13;;;;;;;4.15;2.03;;;;;;;;;;5079064;28;20181;-45
2021/08/25 06:47:39;;;;;;;2.55;1.50;;;;;;;;;;5077108;28;20166;-44
2021/08/25 06:50:06;;;;;;;2.40;1.80;;;;;;;;;;5091998;28;20510;-44
2021/08/25 06:52:32;;;;;;;2.42;1.70;;;;;;;;;;5094097;28;20200;-44
2021/08/25 06:54:58;;;;;;;4.28;1.92;;;;;;;;;;5097739;28;20189;-44
2021/08/25 06:57:24;;;;;;;2.28;1.70;;;;;;;;;;5096792;28;20555;-44
2021/08/25 06:59:50;;;;;;;2.10;1.60;;;;;;;;;;5097694;28;20166;-44
2021/08/25 07:02:16;;;;;;;3.05;1.80;;;;;;;;;;5097246;28;20213;-44
2021/08/25 07:04:46;;;;;;;2.20;1.38;;;;;;;;;;5091468;28;20175;-44
2021/08/25 07:07:15;;;;;;;1.70;1.60;;;;;;;;;;5079175;28;20170;-44
2021/08/25 07:09:41;;;;;;;1.95;1.50;;;;;;;;;;5097262;28;20170;-44
2021/08/25 07:12:07;;;;;;;3.00;1.70;;;;;;;;;;5097190;28;20252;-44
2021/08/25 07:14:33;;;;;;;2.65;1.60;;;;;;;;;;5097158;28;20565;-44
2021/08/25 07:17:00;;;;;;;1.92;1.70;;;;;;;;;;5096937;28;20287;-44
2021/08/25 07:19:26;;;;;;;1.77;1.50;;;;;;;;;;5097046;28;20181;-44
2021/08/25 07:21:52;;;;;;;2.47;1.48;;;;;;;;;;5095589;28;20500;-44
2021/08/25 07:24:18;;;;;;;4.10;1.65;;;;;;;;;;5096479;28;20181;-44
2021/08/25 07:26:44;;;;;;;1.58;1.40;;;;;;;;;;5096906;28;20177;-44
2021/08/25 07:29:10;;;;;;;2.40;1.67;;;;;;;;;;5096456;28;20181;-44
2021/08/25 07:31:36;;;;;;;2.80;1.85;;;;;;;;;;5097008;28;20441;-44
2021/08/25 07:34:03;;;;;;;1.75;1.50;;;;;;;;;;5096379;28;20217;-44
2021/08/25 07:36:30;;;;;;;3.63;1.85;;;;;;;;;;5096793;28;20677;-44
2021/08/25 07:38:55;;;;;;;1.65;1.50;;;;;;;;;;5098928;28;20456;-44
2021/08/25 07:41:21;;;;;;;1.55;1.45;;;;;;;;;;5101810;28;20213;-44
2021/08/25 07:43:47;;;;;;;1.67;1.42;;;;;;;;;;5096604;28;20178;-44
2021/08/25 07:46:13;;;;;;;2.72;1.80;;;;;;;;;;5096921;28;20170;-44
2021/08/25 07:48:39;;;;;;;1.98;1.42;;;;;;;;;;5095778;28;20178;-45
2021/08/25 07:51:09;;;;;;;1.77;1.52;;;;;;;;;;5078406;28;20181;-45
2021/08/25 07:53:35;;;;;;;2.72;1.30;;;;;;;;;;5088894;28;20507;-45
2021/08/25 07:56:01;;;;;;;1.50;1.40;;;;;;;;;;5096567;28;20170;-45
2021/08/25 07:58:27;;;;;;;2.70;1.73;;;;;;;;;;5094074;28;20178;-45
2021/08/25 08:00:53;;;;;;;3.15;1.60;;;;;;;;;;5095443;28;20609;-45
2021/08/25 08:03:19;;;;;;;2.30;1.50;;;;;;;;;;5079147;28;20205;-45
2021/08/25 08:05:46;;;;;;;1.52;1.42;;;;;;;;;;5091644;28;20215;-45
2021/08/25 08:08:12;;;;;;;1.83;1.67;;;;;;;;;;5095074;28;20257;-45
2021/08/25 08:10:38;;;;;;;1.70;1.60;;;;;;;;;;5083959;28;20539;-45
2021/08/25 08:13:04;;;;;;;1.40;1.30;;;;;;;;;;5095294;28;20188;-45
2021/08/25 08:15:31;;;;;;;1.55;1.30;;;;;;;;;;5095644;28;20261;-45
2021/08/25 08:17:59;;;;;;;1.77;1.60;;;;;;;;;;5094128;28;20195;-45
2021/08/25 08:20:25;;;;;;;2.70;1.60;;;;;;;;;;5095913;28;20174;-45
2021/08/25 08:22:51;;;;;;;1.88;1.50;;;;;;;;;;5094971;28;20212;-45
2021/08/25 08:25:17;;;;;;;1.55;1.40;;;;;;;;;;5076150;28;20163;-44
2021/08/25 08:27:43;;;;;;;1.67;1.45;;;;;;;;;;5093433;28;20181;-45
2021/08/25 08:30:10;;;;;;;2.72;1.73;;;;;;;;;;5094267;28;20191;-45
2021/08/25 08:32:35;;;;;;;1.80;1.55;;;;;;;;;;5095696;28;20261;-44
2021/08/25 08:35:01;;;;;;;2.28;1.50;;;;;;;;;;5094579;28;20609;-44
2021/08/25 08:37:27;;;;;;;1.45;1.35;;;;;;;;;;5094589;28;20200;-44
2021/08/25 08:39:53;;;;;;;1.55;1.45;;;;;;;;;;5101617;28;20237;-44
2021/08/25 08:42:32;;;;;;;1.77;1.52;;;;;;;;;;5101901;28;20806;-44
2021/08/25 08:44:59;;;;;;;1.60;1.35;;;;;;;;;;5081906;28;20185;-44
2021/08/25 08:47:26;;;;;;;1.30;1.20;;;;;;;;;;5078432;28;20283;-44
2021/08/25 08:49:56;;;;;;;1.50;1.40;;;;;;;;;;5093042;28;20170;-44
2021/08/25 08:52:23;;;;;;;1.50;1.40;;;;;;;;;;5093741;28;20664;-44
2021/08/25 08:54:50;;;;;;;1.65;1.55;;;;;;;;;;5082978;28;20177;-45
2021/08/25 08:57:16;;;;;;;2.20;1.60;;;;;;;;;;5094674;28;20182;-45
2021/08/25 08:59:42;;;;;;;1.83;1.55;;;;;;;;;;5083598;28;20740;-45
2021/08/25 09:02:08;;;;;;;1.88;1.77;;;;;;;;;;5085374;28;20221;-45
2021/08/25 09:04:35;;;;;;;1.50;1.40;;;;;;;;;;5093962;28;20519;-45
2021/08/25 09:07:01;;;;;;;1.30;1.20;;;;;;;;;;5092988;28;20185;-45
2021/08/25 09:09:28;;;;;;;2.30;1.63;;;;;;;;;;5094600;28;20204;-45
2021/08/25 09:11:55;;;;;;;1.60;1.50;;;;;;;;;;5095020;28;20468;-45
2021/08/25 09:14:27;;;;;;;1.98;1.77;;;;;;;;;;5083816;28;20174;-45
2021/08/25 09:16:54;;;;;;;1.58;1.30;;;;;;;;;;5086598;28;20243;-45
2021/08/25 09:19:24;;;;;;;1.80;1.40;;;;;;;;;;5094321;28;20228;-45
2021/08/25 09:21:52;;;;;;;1.80;1.40;;;;;;;;;;5074613;28;20516;-45
2021/08/25 09:24:38;;;;;;;2.35;1.42;;;;;;;;;;5094139;28;20226;-45
2021/08/25 09:27:11;;;;;;;1.40;1.30;;;;;;;;;;5094087;28;20245;-45
2021/08/25 09:29:38;;;;;;;2.38;1.50;;;;;;;;;;5091992;28;20181;-48
2021/08/25 09:32:15;;;;;;;1.50;1.40;;;;;;;;;;5086511;28;20213;-45
2021/08/25 09:34:41;;;;;;;3.00;1.40;;;;;;;;;;5076705;28;20194;-45
2021/08/25 09:37:17;;;;;;;1.30;1.20;;;;;;;;;;5079591;28;20296;-45
2021/08/25 09:39:47;;;;;;;2.00;1.80;;;;;;;;;;5099145;28;20200;-45
2021/08/25 09:42:16;;;;;;;1.90;1.60;;;;;;;;;;5102285;28;20209;-45
2021/08/25 09:44:42;;;;;;;2.15;1.60;;;;;;;;;;5093888;28;20252;-45
2021/08/25 09:47:08;;;;;;;1.80;1.20;;;;;;;;;;5093834;28;20190;-45
2021/08/25 09:49:34;;;;;;;2.03;1.40;;;;;;;;;;5093759;28;20178;-45
2021/08/25 09:52:01;;;;;;;2.17;1.50;;;;;;;;;;5076927;28;22151;-45
2021/08/25 09:54:27;;;;;;;1.48;1.30;;;;;;;;;;5094154;28;20178;-45
2021/08/25 09:56:55;;;;;;;1.65;1.40;;;;;;;;;;5094696;28;20165;-45
2021/08/25 09:59:21;;;;;;;1.52;1.40;;;;;;;;;;5098633;28;20185;-45
2021/08/25 10:01:48;;;;;;;2.65;1.40;;;;;;;;;;5098510;28;20194;-45
2021/08/25 10:04:15;;;;;;;1.63;1.42;;;;;;;;;;5094707;28;20177;-45
2021/08/25 10:06:43;;;;;;;1.50;1.40;;;;;;;;;;5078543;28;20173;-45
2021/08/25 10:09:09;;;;;;;1.48;1.38;;;;;;;;;;5095796;28;20299;-45
2021/08/25 10:11:37;;;;;;;1.67;1.40;;;;;;;;;;5098526;28;20170;-45
2021/08/25 10:14:11;;;;;;;1.50;1.40;;;;;;;;;;5098024;28;20185;-45
2021/08/25 10:16:38;;;;;;;2.13;1.60;;;;;;;;;;5098374;28;20177;-45
2021/08/25 10:19:23;;;;;;;1.63;1.48;;;;;;;;;;5097872;28;20445;-45
2021/08/25 10:21:49;;;;;;;1.80;1.70;;;;;;;;;;5082382;28;20212;-45
2021/08/25 10:24:15;;;;;;;1.60;1.50;;;;;;;;;;5096890;28;20177;-45
2021/08/25 10:26:59;;;;;;;1.77;1.45;;;;;;;;;;5098305;28;20174;-45
2021/08/25 10:29:26;;;;;;;1.70;1.60;;;;;;;;;;5097845;28;20177;-45
2021/08/25 10:31:57;;;;;;;1.50;1.40;;;;;;;;;;5098114;28;20421;-45
2021/08/25 10:34:25;;;;;;;1.90;1.70;;;;;;;;;;5098070;28;20182;-45
2021/08/25 10:36:51;;;;;;;1.60;1.50;;;;;;;;;;5095033;28;20236;-45
2021/08/25 10:39:29;;;;;;;1.48;1.38;;;;;;;;;;5104787;28;20239;-45
2021/08/25 10:41:56;;;;;;;1.55;1.45;;;;;;;;;;5097965;28;20568;-45
2021/08/25 10:44:40;;;;;;;2.03;1.30;;;;;;;;;;5097753;28;20158;-45
2021/08/25 10:47:07;;;;;;;1.65;1.42;;;;;;;;;;5097660;28;20168;-45
2021/08/25 10:49:33;;;;;;;1.67;1.50;;;;;;;;;;5097806;28;20170;-44
2021/08/25 10:52:06;;;;;;;1.40;1.30;;;;;;;;;;5097701;28;20193;-44
2021/08/25 10:54:33;;;;;;;1.70;1.60;;;;;;;;;;5078164;28;20177;-44
2021/08/25 10:57:13;;;;;;;1.42;1.30;;;;;;;;;;5076922;28;20174;-44
2021/08/25 10:59:40;;;;;;;1.50;1.40;;;;;;;;;;5077355;28;20182;-44
2021/08/25 11:02:06;;;;;;;1.80;1.58;;;;;;;;;;5077944;28;20596;-44
2021/08/25 11:04:32;;;;;;;1.30;1.20;;;;;;;;;;5097315;28;20270;-44
2021/08/25 11:07:02;;;;;;;1.60;1.50;;;;;;;;;;5096509;28;20540;-45
2021/08/25 11:09:34;;;;;;;1.60;1.50;;;;;;;;;;5094615;28;20177;-45
2021/08/25 11:12:03;;;;;;;1.80;1.45;;;;;;;;;;5077252;28;20300;-45
2021/08/25 11:14:34;;;;;;;1.70;1.58;;;;;;;;;;5086592;28;20568;-45
2021/08/25 11:17:05;;;;;;;2.28;1.63;;;;;;;;;;5097064;28;20178;-45
2021/08/25 11:19:32;;;;;;;1.60;1.30;;;;;;;;;;5093037;28;20549;-45
2021/08/25 11:21:59;;;;;;;2.55;1.40;;;;;;;;;;5096221;28;20193;-45
2021/08/25 11:24:33;;;;;;;1.65;1.40;;;;;;;;;;5097203;28;20248;-45
2021/08/25 11:26:59;;;;;;;1.77;1.48;;;;;;;;;;5095976;28;20177;-45
2021/08/25 11:29:25;;;;;;;1.92;1.52;;;;;;;;;;5097294;28;20556;-44
2021/08/25 11:31:52;;;;;;;1.80;1.50;;;;;;;;;;5097130;28;20174;-45
2021/08/25 11:34:19;;;;;;;1.52;1.40;;;;;;;;;;5096508;28;20186;-45
2021/08/25 11:36:51;;;;;;;1.60;1.50;;;;;;;;;;5096521;28;20193;-45
2021/08/25 11:39:17;;;;;;;1.98;1.42;;;;;;;;;;5104249;28;20249;-45
2021/08/25 11:41:44;;;;;;;2.33;1.48;;;;;;;;;;5102769;28;20560;-45
2021/08/25 11:44:10;;;;;;;1.65;1.40;;;;;;;;;;5085857;28;20181;-45
2021/08/25 11:46:36;;;;;;;1.65;1.50;;;;;;;;;;5076667;28;20249;-45
2021/08/25 11:49:02;;;;;;;2.03;1.40;;;;;;;;;;5082732;28;20170;-45
2021/08/25 11:51:28;;;;;;;1.75;1.40;;;;;;;;;;5096065;28;20173;-45
2021/08/25 11:53:54;;;;;;;1.42;1.30;;;;;;;;;;5096143;28;20216;-45
2021/08/25 11:56:20;;;;;;;1.85;1.63;;;;;;;;;;5096712;28;20468;-45
2021/08/25 11:58:47;;;;;;;1.60;1.50;;;;;;;;;;5093396;28;20173;-45
2021/08/25 12:01:23;;;;;;;1.83;1.58;;;;;;;;;;5087270;28;20459;-45
2021/08/25 12:03:50;;;;;;;1.83;1.70;;;;;;;;;;5096139;28;20184;-45
2021/08/25 12:06:19;;;;;;;1.63;1.42;;;;;;;;;;5096363;28;20691;-45
2021/08/25 12:08:46;;;;;;;1.95;1.70;;;;;;;;;;5095769;28;20608;-46
2021/08/25 12:11:16;;;;;;;1.83;1.55;;;;;;;;;;5095900;28;20181;-45
2021/08/25 12:13:44;;;;;;;1.90;1.42;;;;;;;;;;5096059;28;20174;-45
2021/08/25 12:16:20;;;;;;;1.58;1.33;;;;;;;;;;5094462;28;20218;-45
2021/08/25 12:18:47;;;;;;;1.63;1.52;;;;;;;;;;5095296;28;20231;-45
2021/08/25 12:21:13;;;;;;;2.75;1.70;;;;;;;;;;5094887;28;20198;-45
2021/08/25 12:23:54;;;;;;;1.52;1.42;;;;;;;;;;5095934;28;20184;-45
2021/08/25 12:26:20;;;;;;;1.90;1.70;;;;;;;;;;5095797;28;20177;-45
2021/08/25 12:28:46;;;;;;;1.60;1.50;;;;;;;;;;5095356;28;20669;-45
2021/08/25 12:31:12;;;;;;;1.60;1.50;;;;;;;;;;5092073;28;20178;-45
2021/08/25 12:33:38;;;;;;;1.88;1.70;;;;;;;;;;5081082;28;20557;-45
2021/08/25 12:36:26;;;;;;;1.35;1.25;;;;;;;;;;5095523;28;20201;-45
2021/08/25 12:38:53;;;;;;;1.70;1.60;;;;;;;;;;5102565;28;20189;-45
2021/08/25 12:41:20;;;;;;;1.67;1.58;;;;;;;;;;5104572;28;20257;-45
2021/08/25 12:43:47;;;;;;;1.90;1.55;;;;;;;;;;5095526;28;20533;-45
2021/08/25 12:46:13;;;;;;;1.63;1.42;;;;;;;;;;5083539;28;20496;-45
2021/08/25 12:48:39;;;;;;;1.80;1.63;;;;;;;;;;5086162;28;20587;-45
2021/08/25 12:51:05;;;;;;;1.90;1.55;;;;;;;;;;5095148;28;20178;-45
2021/08/25 12:53:31;;;;;;;1.88;1.70;;;;;;;;;;5095102;28;20554;-45
2021/08/25 12:55:57;;;;;;;2.35;1.83;;;;;;;;;;5095554;28;20261;-45
2021/08/25 12:58:23;;;;;;;1.52;1.42;;;;;;;;;;5090094;28;20215;-45
2021/08/25 13:00:49;;;;;;;2.08;1.52;;;;;;;;;;5079548;28;20436;-45
2021/08/25 13:03:15;;;;;;;1.35;1.25;;;;;;;;;;5092827;28;20212;-45
2021/08/25 13:05:41;;;;;;;1.50;1.40;;;;;;;;;;5095110;28;20177;-45
2021/08/25 13:08:07;;;;;;;1.73;1.63;;;;;;;;;;5094129;28;20606;-45
2021/08/25 13:10:33;;;;;;;1.55;1.45;;;;;;;;;;5095267;28;20448;-45
2021/08/25 13:12:59;;;;;;;2.60;1.80;;;;;;;;;;5095127;28;20177;-45
2021/08/25 13:15:25;;;;;;;1.55;1.25;;;;;;;;;;5095076;28;20190;-45
2021/08/25 13:17:51;;;;;;;1.40;1.30;;;;;;;;;;5093334;28;20880;-45
2021/08/25 13:20:17;;;;;;;1.38;1.17;;;;;;;;;;5094942;28;20243;-45
2021/08/25 13:22:43;;;;;;;2.15;1.60;;;;;;;;;;5094628;28;20193;-45
2021/08/25 13:25:09;;;;;;;2.40;1.70;;;;;;;;;;5094790;28;20178;-45
2021/08/25 13:27:35;;;;;;;2.22;1.98;;;;;;;;;;5094676;28;20195;-45
2021/08/25 13:30:01;;;;;;;1.50;1.40;;;;;;;;;;5094705;28;20192;-45
2021/08/25 13:32:27;;;;;;;1.50;1.40;;;;;;;;;;5094188;28;20193;-45
2021/08/25 13:34:53;;;;;;;7.28;1.95;;;;;;;;;;5085654;28;20182;-45
2021/08/25 13:37:19;;;;;;;6.05;2.00;;;;;;;;;;5083568;28;20188;-45
2021/08/25 13:39:45;;;;;;;10.55;2.88;;;;;;;;;;5102700;28;20234;-45
2021/08/25 13:42:11;;;;;;;8.65;2.10;;;;;;;;;;5095967;28;20608;-45
2021/08/25 13:44:38;;;;;;;12.18;2.42;;;;;;;;;;5073572;28;20244;-45
2021/08/25 13:47:04;;;;;;;6.70;2.20;;;;;;;;;;5077489;28;20573;-45
2021/08/25 13:49:30;;;;;;;7.88;2.40;;;;;;;;;;5092382;28;20188;-45
2021/08/25 13:51:56;;;;;;;6.63;2.58;;;;;;;;;;5092965;28;20626;-45
2021/08/25 13:54:22;;;;;;;4.30;2.15;;;;;;;;;;5093771;28;20192;-45
2021/08/25 13:56:48;;;;;;;6.30;2.58;;;;;;;;;;5094746;28;20182;-45
2021/08/25 13:59:14;;;;;;;5.13;2.33;;;;;;;;;;5086219;28;20177;-45
2021/08/25 14:01:40;;;;;;;5.05;2.42;;;;;;;;;;5076600;28;20252;-45
2021/08/25 14:04:06;;;;;;;4.78;2.60;;;;;;;;;;5094200;28;20170;-45
2021/08/25 14:06:32;;;;;;;4.03;2.50;;;;;;;;;;5089929;28;20171;-45
2021/08/25 14:08:58;;;;;;;4.10;2.78;;;;;;;;;;5090200;28;20181;-45
2021/08/25 14:11:25;;;;;;;4.80;2.55;;;;;;;;;;5094307;28;20192;-45
2021/08/25 14:13:51;;;;;;;3.53;2.30;;;;;;;;;;5094535;28;20515;-45
2021/08/25 14:16:17;;;;;;;5.18;2.60;;;;;;;;;;5094452;28;20186;-45
2021/08/25 14:18:45;;;;;;;3.60;2.58;;;;;;;;;;5093967;28;20177;-45
2021/08/25 14:21:11;;;;;;;5.75;2.72;;;;;;;;;;5081913;28;20174;-45
2021/08/25 14:23:38;;;;;;;5.60;2.83;;;;;;;;;;5094133;28;20264;-45
2021/08/25 14:26:06;;;;;;;5.82;2.80;;;;;;;;;;5094370;28;20177;-45
2021/08/25 14:28:32;;;;;;;4.15;3.20;;;;;;;;;;5089947;28;20258;-45
2021/08/25 14:30:58;;;;;;;4.05;2.72;;;;;;;;;;5074184;28;20190;-45
2021/08/25 14:33:24;;;;;;;3.58;2.50;;;;;;;;;;5083010;28;20483;-45
2021/08/25 14:35:51;;;;;;;4.75;2.60;;;;;;;;;;5093940;28;20194;-45
2021/08/25 14:38:17;;;;;;;5.13;2.88;;;;;;;;;;5093382;28;20184;-45
2021/08/25 14:40:43;;;;;;;4.07;2.78;;;;;;;;;;5098179;28;20200;-45
2021/08/25 14:43:10;;;;;;;3.92;3.35;;;;;;;;;;5091100;28;20283;-45